createdAt,value
2017-12-23T00:00:27.076Z,77.60
2017-12-23T00:02:53.242Z,77.60
2017-12-23T00:05:19.432Z,77.60
2017-12-23T00:07:45.620Z,78.70
2017-12-23T00:10:12.540Z,78.20
2017-12-23T00:12:38.765Z,78.10
2017-12-23T00:15:04.960Z,78.70
2017-12-23T00:17:31.109Z,77.90
2017-12-23T00:19:57.295Z,78.70
2017-12-23T00:22:24.256Z,78.70
2017-12-23T00:24:50.458Z,78.70
2017-12-23T00:27:17.388Z,78.10
2017-12-23T00:29:43.595Z,78.00
2017-12-23T00:32:09.805Z,78.90
2017-12-23T00:34:36.703Z,77.90
2017-12-23T00:37:02.928Z,77.80
2017-12-23T00:39:29.132Z,77.20
2017-12-23T00:41:56.028Z,77.60
2017-12-23T00:44:22.230Z,77.50
2017-12-23T00:46:48.505Z,77.60
2017-12-23T00:49:14.898Z,78.20
2017-12-23T00:51:41.112Z,78.10
2017-12-23T00:54:08.024Z,78.30
2017-12-23T00:56:34.207Z,78.20
2017-12-23T00:59:01.127Z,77.90
2017-12-23T01:01:27.302Z,77.80
2017-12-23T01:03:54.212Z,77.50
2017-12-23T01:06:20.424Z,77.50
2017-12-23T01:08:46.616Z,78.30
2017-12-23T01:11:13.537Z,77.00
2017-12-23T01:13:39.716Z,76.90
2017-12-23T01:16:05.943Z,76.90
2017-12-23T01:18:32.132Z,76.70
2017-12-23T01:20:58.329Z,76.80
2017-12-23T01:23:24.528Z,76.10
2017-12-23T01:25:50.737Z,76.90
2017-12-23T01:28:16.973Z,77.30
2017-12-23T01:30:43.209Z,77.50
2017-12-23T01:33:09.420Z,78.60
2017-12-23T01:35:35.614Z,77.70
2017-12-23T01:38:02.529Z,76.50
2017-12-23T01:40:28.708Z,76.50
2017-12-23T01:42:54.927Z,76.70
2017-12-23T01:45:21.852Z,77.30
2017-12-23T01:47:48.148Z,77.30
2017-12-23T01:50:14.595Z,76.70
2017-12-23T01:52:40.756Z,76.00
2017-12-23T01:55:06.926Z,77.20
2017-12-23T01:57:33.871Z,79.10
2017-12-23T02:00:00.824Z,77.90
2017-12-23T02:02:27.770Z,76.90
2017-12-23T02:04:54.698Z,79.10
2017-12-23T02:07:20.896Z,78.50
2017-12-23T02:09:47.080Z,78.70
2017-12-23T02:12:13.291Z,77.90
2017-12-23T02:14:39.481Z,78.70
2017-12-23T02:17:05.673Z,77.70
2017-12-23T02:19:31.875Z,78.90
2017-12-23T02:21:58.065Z,78.90
2017-12-23T02:24:24.977Z,79.90
2017-12-23T02:26:51.516Z,79.10
2017-12-23T02:29:17.691Z,78.70
2017-12-23T02:31:44.644Z,79.10
2017-12-23T02:34:12.458Z,78.10
2017-12-23T02:36:38.648Z,78.10
2017-12-23T02:39:05.577Z,79.60
2017-12-23T02:41:31.769Z,79.60
2017-12-23T02:43:57.940Z,79.60
2017-12-23T02:46:24.152Z,79.30
2017-12-23T02:48:50.432Z,78.80
2017-12-23T02:51:16.668Z,79.00
2017-12-23T02:53:43.584Z,79.00
2017-12-23T02:56:10.754Z,79.00
2017-12-23T02:58:36.948Z,80.10
2017-12-23T03:01:03.156Z,79.40
2017-12-23T03:03:29.388Z,79.30
2017-12-23T03:05:55.584Z,79.50
2017-12-23T03:08:21.785Z,79.10
2017-12-23T03:10:47.979Z,79.10
2017-12-23T03:13:14.904Z,81.00
2017-12-23T03:15:41.123Z,81.00
2017-12-23T03:18:07.352Z,81.20
2017-12-23T03:20:33.522Z,80.60
2017-12-23T03:23:00.456Z,81.20
2017-12-23T03:25:26.649Z,81.10
2017-12-23T03:27:52.844Z,81.70
2017-12-23T03:30:19.035Z,81.70
2017-12-23T03:32:50.179Z,81.70
2017-12-23T03:35:16.384Z,81.60
2017-12-23T03:37:42.572Z,81.60
2017-12-23T03:40:08.761Z,82.20
2017-12-23T03:42:34.964Z,82.60
2017-12-23T03:45:01.187Z,82.20
2017-12-23T03:47:27.404Z,82.30
2017-12-23T03:49:53.664Z,83.00
2017-12-23T03:52:20.046Z,82.90
2017-12-23T03:54:46.216Z,82.40
2017-12-23T03:57:12.384Z,82.40
2017-12-23T03:59:38.598Z,82.20
2017-12-23T04:02:05.568Z,82.50
2017-12-23T04:04:31.744Z,82.40
2017-12-23T04:06:57.907Z,82.10
2017-12-23T04:09:24.108Z,82.50
2017-12-23T04:11:50.306Z,81.90
2017-12-23T04:14:16.480Z,82.70
2017-12-23T04:16:42.673Z,82.80
2017-12-23T04:19:08.893Z,82.70
2017-12-23T04:21:35.808Z,83.00
2017-12-23T04:24:02.763Z,83.00
2017-12-23T04:26:28.933Z,82.90
2017-12-23T04:28:55.131Z,82.60
2017-12-23T04:31:22.072Z,83.60
2017-12-23T04:33:48.276Z,83.50
2017-12-23T04:36:14.463Z,83.80
2017-12-23T04:38:41.395Z,83.60
2017-12-23T04:41:07.564Z,83.60
2017-12-23T04:43:33.735Z,83.30
2017-12-23T04:45:59.956Z,83.40
2017-12-23T04:48:26.120Z,83.50
2017-12-23T04:50:54.048Z,83.30
2017-12-23T04:53:21.175Z,83.60
2017-12-23T04:55:48.128Z,83.00
2017-12-23T04:58:14.338Z,83.00
2017-12-23T05:00:41.292Z,83.60
2017-12-23T05:03:08.240Z,83.40
2017-12-23T05:05:34.412Z,83.30
2017-12-23T05:08:00.593Z,83.10
2017-12-23T05:10:26.772Z,83.30
2017-12-23T05:12:53.684Z,83.90
2017-12-23T05:15:19.884Z,83.80
2017-12-23T05:17:46.060Z,84.00
2017-12-23T05:20:12.976Z,83.40
2017-12-23T05:22:39.199Z,83.20
2017-12-23T05:25:05.388Z,83.40
2017-12-23T05:27:32.320Z,84.20
2017-12-23T05:29:58.673Z,84.10
2017-12-23T05:32:25.635Z,84.10
2017-12-23T05:34:51.830Z,84.00
2017-12-23T05:37:18.008Z,84.00
2017-12-23T05:39:44.185Z,84.50
2017-12-23T05:42:10.369Z,84.40
2017-12-23T05:44:39.022Z,84.70
2017-12-23T05:47:05.240Z,84.50
2017-12-23T05:49:31.424Z,84.20
2017-12-23T05:51:57.716Z,84.60
2017-12-23T05:54:23.960Z,84.60
2017-12-23T05:56:50.143Z,84.70
2017-12-23T05:59:16.373Z,84.40
2017-12-23T06:01:42.568Z,84.10
2017-12-23T06:04:09.507Z,84.50
2017-12-23T06:06:35.699Z,84.50
2017-12-23T06:09:01.889Z,84.70
2017-12-23T06:11:28.840Z,85.00
2017-12-23T06:13:55.025Z,85.00
2017-12-23T06:16:21.221Z,84.80
2017-12-23T06:18:47.384Z,84.70
2017-12-23T06:21:13.561Z,85.10
2017-12-23T06:23:39.745Z,85.00
2017-12-23T06:26:05.943Z,85.10
2017-12-23T06:28:32.140Z,85.10
2017-12-23T06:30:58.314Z,85.10
2017-12-23T06:33:24.517Z,85.50
2017-12-23T06:35:50.700Z,85.30
2017-12-23T06:38:17.676Z,85.40
2017-12-23T06:40:43.872Z,85.40
2017-12-23T06:43:10.103Z,85.50
2017-12-23T06:45:37.021Z,86.30
2017-12-23T06:48:03.196Z,85.80
2017-12-23T06:50:30.136Z,85.80
2017-12-23T06:52:56.376Z,85.80
2017-12-23T06:55:22.784Z,85.90
2017-12-23T06:57:48.955Z,85.80
2017-12-23T07:00:15.876Z,86.00
2017-12-23T07:02:42.057Z,86.60
2017-12-23T07:05:08.241Z,86.10
2017-12-23T07:07:34.428Z,86.20
2017-12-23T07:10:00.602Z,86.20
2017-12-23T07:12:26.816Z,86.10
2017-12-23T07:14:52.989Z,86.20
2017-12-23T07:17:19.916Z,86.30
2017-12-23T07:19:46.100Z,86.30
2017-12-23T07:22:12.291Z,86.30
2017-12-23T07:24:38.477Z,86.30
2017-12-23T07:27:04.785Z,86.50
2017-12-23T07:29:31.720Z,86.80
2017-12-23T07:31:58.672Z,86.50
2017-12-23T07:34:25.628Z,86.30
2017-12-23T07:36:51.822Z,86.30
2017-12-23T07:39:18.003Z,86.50
2017-12-23T07:41:44.948Z,86.70
2017-12-23T07:44:11.888Z,86.50
2017-12-23T07:46:38.829Z,86.40
2017-12-23T07:49:05.085Z,86.50
2017-12-23T07:51:31.281Z,86.40
2017-12-23T07:53:57.520Z,87.30
2017-12-23T07:56:23.762Z,86.80
2017-12-23T07:58:50.726Z,86.40
2017-12-23T08:01:16.913Z,86.40
2017-12-23T08:03:43.161Z,86.40
2017-12-23T08:06:09.336Z,86.50
2017-12-23T08:08:35.521Z,86.50
2017-12-23T08:11:01.700Z,86.30
2017-12-23T08:13:27.909Z,86.50
2017-12-23T08:15:54.083Z,86.40
2017-12-23T08:18:21.041Z,86.60
2017-12-23T08:20:47.971Z,86.30
2017-12-23T08:23:14.179Z,86.30
2017-12-23T08:25:40.386Z,86.30
2017-12-23T08:28:06.572Z,86.30
2017-12-23T08:30:32.765Z,86.20
2017-12-23T08:32:58.960Z,86.30
2017-12-23T08:35:25.879Z,86.10
2017-12-23T08:37:52.084Z,86.00
2017-12-23T08:40:18.323Z,86.10
2017-12-23T08:42:44.529Z,86.20
2017-12-23T08:45:11.448Z,86.00
2017-12-23T08:47:38.410Z,86.00
2017-12-23T08:50:05.339Z,85.80
2017-12-23T08:52:31.500Z,85.70
2017-12-23T08:54:58.613Z,85.70
2017-12-23T08:57:24.857Z,85.60
2017-12-23T08:59:51.076Z,85.80
2017-12-23T09:02:17.273Z,85.70
2017-12-23T09:04:44.188Z,85.70
2017-12-23T09:07:10.352Z,85.70
2017-12-23T09:09:36.576Z,85.70
2017-12-23T09:12:03.497Z,86.10
2017-12-23T09:14:29.672Z,86.00
2017-12-23T09:16:55.920Z,86.20
2017-12-23T09:19:22.100Z,86.20
2017-12-23T09:21:48.272Z,86.30
2017-12-23T09:24:15.206Z,85.90
2017-12-23T09:26:42.127Z,86.20
2017-12-23T09:29:08.296Z,86.20
2017-12-23T09:31:34.480Z,86.20
2017-12-23T09:34:00.664Z,86.30
2017-12-23T09:36:27.606Z,86.40
2017-12-23T09:38:54.550Z,86.20
2017-12-23T09:41:21.491Z,86.30
2017-12-23T09:43:47.684Z,86.20
2017-12-23T09:46:13.896Z,86.70
2017-12-23T09:48:40.816Z,86.50
2017-12-23T09:51:07.025Z,86.50
2017-12-23T09:53:33.228Z,86.20
2017-12-23T09:55:59.472Z,86.20
2017-12-23T09:58:25.669Z,86.30
2017-12-23T10:00:51.860Z,86.00
2017-12-23T10:03:18.097Z,85.80
2017-12-23T10:05:44.281Z,86.00
2017-12-23T10:08:10.496Z,85.90
2017-12-23T10:10:36.668Z,85.80
2017-12-23T10:13:03.567Z,86.00
2017-12-23T10:15:29.756Z,85.90
2017-12-23T10:17:55.935Z,85.90
2017-12-23T10:20:22.125Z,85.70
2017-12-23T10:22:48.361Z,85.90
2017-12-23T10:25:14.556Z,85.80
2017-12-23T10:27:41.496Z,86.40
2017-12-23T10:30:08.511Z,86.90
2017-12-23T10:32:34.734Z,86.30
2017-12-23T10:35:00.917Z,86.10
2017-12-23T10:37:27.860Z,86.80
2017-12-23T10:39:54.807Z,86.70
2017-12-23T10:42:21.007Z,86.20
2017-12-23T10:44:47.218Z,86.00
2017-12-23T10:47:14.132Z,85.50
2017-12-23T10:49:40.329Z,85.40
2017-12-23T10:52:06.548Z,85.40
2017-12-23T10:54:32.801Z,85.30
2017-12-23T10:56:59.776Z,84.90
2017-12-23T10:59:26.168Z,84.80
2017-12-23T11:01:52.356Z,84.90
2017-12-23T11:04:18.511Z,84.70
2017-12-23T11:06:45.460Z,84.70
2017-12-23T11:09:12.407Z,84.50
2017-12-23T11:11:38.632Z,84.50
2017-12-23T11:14:05.576Z,84.80
2017-12-23T11:16:31.756Z,84.80
2017-12-23T11:18:57.947Z,84.90
2017-12-23T11:21:24.152Z,85.40
2017-12-23T11:23:50.332Z,85.00
2017-12-23T11:26:17.281Z,84.80
2017-12-23T11:28:44.202Z,84.80
2017-12-23T11:31:10.363Z,84.70
2017-12-23T11:33:37.271Z,84.80
2017-12-23T11:36:03.468Z,84.70
2017-12-23T11:38:29.651Z,84.60
2017-12-23T11:40:55.820Z,84.90
2017-12-23T11:43:22.811Z,84.50
2017-12-23T11:45:49.001Z,84.40
2017-12-23T11:48:15.919Z,84.60
2017-12-23T11:50:42.109Z,84.50
2017-12-23T11:53:08.336Z,84.50
2017-12-23T11:55:35.234Z,85.00
2017-12-23T11:58:01.492Z,85.00
2017-12-23T12:00:27.877Z,85.10
2017-12-23T12:02:54.084Z,85.00
2017-12-23T12:05:20.328Z,84.90
2017-12-23T12:07:47.240Z,84.60
2017-12-23T12:10:13.432Z,84.60
2017-12-23T12:12:39.653Z,84.80
2017-12-23T12:15:05.824Z,84.70
2017-12-23T12:17:32.032Z,84.60
2017-12-23T12:19:58.260Z,84.70
2017-12-23T12:22:24.472Z,84.60
2017-12-23T12:24:51.421Z,84.60
2017-12-23T12:27:18.357Z,84.70
2017-12-23T12:29:45.304Z,84.80
2017-12-23T12:32:11.491Z,84.70
2017-12-23T12:34:37.699Z,84.80
2017-12-23T12:37:03.895Z,84.90
2017-12-23T12:39:30.100Z,84.90
2017-12-23T12:41:56.281Z,84.90
2017-12-23T12:44:23.216Z,84.90
2017-12-23T12:46:50.248Z,85.00
2017-12-23T12:49:16.472Z,84.90
2017-12-23T12:51:42.649Z,84.90
2017-12-23T12:54:09.565Z,84.90
2017-12-23T12:56:35.788Z,84.90
2017-12-23T12:59:02.080Z,84.80
2017-12-23T13:01:28.411Z,85.30
2017-12-23T13:03:55.345Z,85.10
2017-12-23T13:06:21.524Z,85.10
2017-12-23T13:08:48.432Z,85.20
2017-12-23T13:11:16.088Z,84.80
2017-12-23T13:13:42.265Z,84.80
2017-12-23T13:16:08.448Z,85.00
2017-12-23T13:18:34.620Z,84.60
2017-12-23T13:21:01.544Z,84.80
2017-12-23T13:23:27.790Z,84.80
2017-12-23T13:25:53.940Z,84.50
2017-12-23T13:28:20.852Z,84.30
2017-12-23T13:30:47.035Z,84.20
2017-12-23T13:33:13.229Z,84.80
2017-12-23T13:35:39.408Z,84.80
2017-12-23T13:38:05.601Z,85.10
2017-12-23T13:40:31.780Z,85.00
2017-12-23T13:42:57.952Z,85.10
2017-12-23T13:45:24.116Z,85.10
2017-12-23T13:47:51.052Z,84.60
2017-12-23T13:50:18.002Z,84.80
2017-12-23T13:52:44.932Z,85.10
2017-12-23T13:55:11.129Z,85.10
2017-12-23T13:57:37.301Z,84.90
2017-12-23T14:00:03.726Z,84.90
2017-12-23T14:02:29.941Z,84.80
2017-12-23T14:04:56.124Z,85.00
2017-12-23T14:07:23.100Z,85.90
2017-12-23T14:09:50.093Z,85.30
2017-12-23T14:12:16.248Z,85.30
2017-12-23T14:14:42.432Z,85.30
2017-12-23T14:17:08.642Z,85.60
2017-12-23T14:19:35.587Z,85.10
2017-12-23T14:22:02.561Z,85.20
2017-12-23T14:24:28.761Z,85.80
2017-12-23T14:26:54.972Z,85.20
2017-12-23T14:29:21.188Z,84.90
2017-12-23T14:31:47.369Z,85.00
2017-12-23T14:34:13.549Z,84.80
2017-12-23T14:36:39.726Z,84.80
2017-12-23T14:39:05.944Z,84.90
2017-12-23T14:41:32.128Z,85.30
2017-12-23T14:43:58.336Z,85.30
2017-12-23T14:46:24.533Z,85.50
2017-12-23T14:48:50.712Z,85.60
2017-12-23T14:51:17.637Z,85.60
2017-12-23T14:53:43.952Z,85.60
2017-12-23T14:56:10.137Z,85.50
2017-12-23T14:58:37.060Z,85.70
2017-12-23T15:01:03.369Z,85.60
2017-12-23T15:03:29.767Z,85.80
2017-12-23T15:05:56.684Z,85.80
2017-12-23T15:08:22.897Z,85.80
2017-12-23T15:10:49.112Z,85.90
2017-12-23T15:13:15.309Z,85.90
2017-12-23T15:15:42.279Z,86.30
2017-12-23T15:18:08.449Z,86.00
2017-12-23T15:20:34.624Z,86.10
2017-12-23T15:23:00.817Z,86.20
2017-12-23T15:25:27.008Z,86.10
2017-12-23T15:27:53.916Z,86.20
2017-12-23T15:30:20.098Z,86.20
2017-12-23T15:32:47.007Z,86.10
2017-12-23T15:35:13.181Z,86.10
2017-12-23T15:37:40.103Z,86.20
2017-12-23T15:40:07.025Z,86.40
2017-12-23T15:42:33.187Z,86.30
2017-12-23T15:45:00.113Z,86.10
2017-12-23T15:47:26.317Z,86.00
2017-12-23T15:49:52.482Z,86.60
2017-12-23T15:52:18.684Z,86.60
2017-12-23T15:54:44.920Z,86.80
2017-12-23T15:57:11.110Z,86.10
2017-12-23T15:59:38.072Z,87.00
2017-12-23T16:02:05.092Z,86.10
2017-12-23T16:04:31.484Z,86.10
2017-12-23T16:06:57.666Z,85.90
2017-12-23T16:09:23.836Z,86.10
2017-12-23T16:11:50.746Z,86.10
2017-12-23T16:14:16.928Z,86.10
2017-12-23T16:16:43.160Z,86.10
2017-12-23T16:19:09.337Z,86.30
2017-12-23T16:21:35.556Z,86.20
2017-12-23T16:24:01.729Z,86.00
2017-12-23T16:26:27.930Z,86.10
2017-12-23T16:28:54.130Z,86.00
2017-12-23T16:31:20.328Z,86.00
2017-12-23T16:33:46.508Z,85.10
2017-12-23T16:36:12.721Z,84.80
2017-12-23T16:38:38.924Z,84.90
2017-12-23T16:41:05.125Z,84.70
2017-12-23T16:43:31.304Z,84.60
2017-12-23T16:45:57.488Z,84.70
2017-12-23T16:48:23.692Z,84.90
2017-12-23T16:50:50.617Z,84.70
2017-12-23T16:53:16.796Z,84.70
2017-12-23T16:55:42.982Z,84.40
2017-12-23T16:58:09.925Z,85.00
2017-12-23T17:00:36.116Z,84.50
2017-12-23T17:03:02.564Z,84.60
2017-12-23T17:05:28.897Z,84.80
2017-12-23T17:07:55.080Z,85.10
2017-12-23T17:10:21.256Z,84.80
2017-12-23T17:12:47.489Z,84.80
2017-12-23T17:15:13.681Z,84.60
2017-12-23T17:17:39.865Z,84.70
2017-12-23T17:20:06.966Z,84.70
2017-12-23T17:22:33.150Z,85.00
2017-12-23T17:24:59.395Z,84.90
2017-12-23T17:27:26.284Z,84.60
2017-12-23T17:30:04.745Z,84.60
2017-12-23T17:32:30.956Z,85.10
2017-12-23T17:34:57.165Z,85.00
2017-12-23T17:37:23.373Z,85.10
2017-12-23T17:39:49.599Z,84.80
2017-12-23T17:42:15.855Z,84.40
2017-12-23T17:44:42.044Z,84.60
2017-12-23T17:47:08.253Z,84.40
2017-12-23T17:49:35.221Z,84.10
2017-12-23T17:52:01.400Z,84.00
2017-12-23T17:54:27.602Z,84.10
2017-12-23T17:56:53.824Z,84.10
2017-12-23T17:59:20.014Z,84.40
2017-12-23T18:01:46.213Z,84.40
2017-12-23T18:04:12.489Z,84.40
2017-12-23T18:06:40.487Z,84.30
2017-12-23T18:09:07.420Z,84.30
2017-12-23T18:11:34.364Z,84.10
2017-12-23T18:14:00.576Z,84.10
2017-12-23T18:16:26.830Z,84.50
2017-12-23T18:18:53.015Z,84.10
2017-12-23T18:21:19.236Z,84.40
2017-12-23T18:23:45.472Z,84.10
2017-12-23T18:26:13.611Z,84.90
2017-12-23T18:28:40.483Z,84.50
2017-12-23T18:31:07.412Z,84.40
2017-12-23T18:33:33.620Z,84.40
2017-12-23T18:35:59.826Z,84.30
2017-12-23T18:38:26.795Z,84.10
2017-12-23T18:40:53.688Z,84.00
2017-12-23T18:43:20.644Z,84.00
2017-12-23T18:45:47.590Z,84.80
2017-12-23T18:48:13.796Z,84.10
2017-12-23T18:50:40.031Z,84.00
2017-12-23T18:53:06.266Z,84.10
2017-12-23T18:55:32.460Z,84.00
2017-12-23T18:57:58.664Z,83.80
2017-12-23T19:00:24.872Z,83.50
2017-12-23T19:02:51.074Z,84.20
2017-12-23T19:05:17.304Z,84.00
2017-12-23T19:07:43.552Z,84.00
2017-12-23T19:10:09.776Z,83.70
2017-12-23T19:12:35.976Z,83.50
2017-12-23T19:15:02.919Z,83.70
2017-12-23T19:17:29.121Z,83.80
2017-12-23T19:19:55.320Z,83.60
2017-12-23T19:22:21.596Z,83.50
2017-12-23T19:24:47.809Z,83.70
2017-12-23T19:27:14.996Z,83.30
2017-12-23T19:29:41.234Z,83.60
2017-12-23T19:32:07.436Z,83.70
2017-12-23T19:34:33.664Z,83.70
2017-12-23T19:36:59.872Z,83.70
2017-12-23T19:39:26.786Z,83.90
2017-12-23T19:41:52.984Z,83.80
2017-12-23T19:44:19.197Z,83.40
2017-12-23T19:46:45.411Z,83.30
2017-12-23T19:49:12.337Z,83.60
2017-12-23T19:51:38.511Z,83.60
2017-12-23T19:54:04.735Z,83.20
2017-12-23T19:56:30.936Z,83.20
2017-12-23T19:58:57.133Z,82.60
2017-12-23T20:01:23.320Z,83.10
2017-12-23T20:03:49.500Z,82.70
2017-12-23T20:06:15.808Z,83.60
2017-12-23T20:08:42.137Z,82.90
2017-12-23T20:11:09.051Z,83.40
2017-12-23T20:13:35.276Z,83.40
2017-12-23T20:16:01.512Z,83.00
2017-12-23T20:18:27.701Z,82.90
2017-12-23T20:20:53.896Z,82.70
2017-12-23T20:23:20.121Z,82.80
2017-12-23T20:25:46.320Z,82.80
2017-12-23T20:28:12.516Z,83.10
2017-12-23T20:30:38.723Z,82.90
2017-12-23T20:33:04.920Z,83.20
2017-12-23T20:35:31.125Z,82.90
2017-12-23T20:37:58.079Z,83.00
2017-12-23T20:40:24.301Z,83.00
2017-12-23T20:42:50.504Z,82.90
2017-12-23T20:45:16.716Z,82.70
2017-12-23T20:47:43.614Z,83.20
2017-12-23T20:50:09.839Z,82.50
2017-12-23T20:52:36.028Z,82.30
2017-12-23T20:55:02.242Z,82.60
2017-12-23T20:57:29.168Z,82.50
2017-12-23T20:59:55.398Z,82.50
2017-12-23T21:02:21.590Z,83.00
2017-12-23T21:04:47.798Z,82.90
2017-12-23T21:07:14.138Z,83.00
2017-12-23T21:09:40.585Z,82.60
2017-12-23T21:12:07.569Z,83.10
2017-12-23T21:14:33.753Z,83.10
2017-12-23T21:17:00.654Z,83.10
2017-12-23T21:19:26.860Z,83.00
2017-12-23T21:21:53.032Z,82.70
2017-12-23T21:24:19.208Z,82.70
2017-12-23T21:26:46.150Z,82.90
2017-12-23T21:29:13.076Z,83.10
2017-12-23T21:31:39.993Z,82.40
2017-12-23T21:34:06.158Z,82.40
2017-12-23T21:36:32.332Z,82.50
2017-12-23T21:38:58.508Z,83.00
2017-12-23T21:41:24.683Z,83.00
2017-12-23T21:43:51.598Z,82.20
2017-12-23T21:46:17.773Z,82.30
2017-12-23T21:48:44.701Z,82.30
2017-12-23T21:51:10.897Z,82.20
2017-12-23T21:53:37.076Z,82.60
2017-12-23T21:56:03.273Z,82.20
2017-12-23T21:58:29.437Z,82.50
2017-12-23T22:00:55.613Z,82.60
2017-12-23T22:03:21.825Z,82.90
2017-12-23T22:05:48.765Z,82.90
2017-12-23T22:08:15.748Z,83.50
2017-12-23T22:10:41.972Z,82.70
2017-12-23T22:13:08.167Z,82.90
2017-12-23T22:15:34.328Z,82.40
2017-12-23T22:18:01.258Z,82.60
2017-12-23T22:20:27.436Z,82.60
2017-12-23T22:22:53.615Z,82.90
2017-12-23T22:25:19.786Z,82.90
2017-12-23T22:27:46.711Z,83.00
2017-12-23T22:30:12.902Z,83.00
2017-12-23T22:32:39.104Z,82.40
2017-12-23T22:35:06.016Z,82.50
2017-12-23T22:37:32.192Z,82.50
2017-12-23T22:39:58.392Z,82.30
2017-12-23T22:42:32.971Z,81.60
2017-12-23T22:44:59.168Z,82.50
2017-12-23T22:47:26.087Z,82.20
2017-12-23T22:49:52.268Z,82.20
2017-12-23T22:52:18.476Z,82.20
2017-12-23T22:54:45.404Z,82.10
2017-12-23T22:57:11.580Z,82.00
2017-12-23T22:59:38.514Z,81.30
2017-12-23T23:02:05.445Z,81.90
2017-12-23T23:04:31.634Z,81.80
2017-12-23T23:06:57.852Z,82.20
2017-12-23T23:09:24.863Z,82.10
2017-12-23T23:11:51.121Z,82.00
2017-12-23T23:14:18.088Z,82.20
2017-12-23T23:16:44.279Z,82.00
2017-12-23T23:19:10.456Z,82.70
2017-12-23T23:21:36.654Z,82.70
2017-12-23T23:24:02.836Z,82.70
2017-12-23T23:26:29.031Z,82.40
2017-12-23T23:28:55.232Z,82.30
2017-12-23T23:31:21.401Z,82.40
2017-12-23T23:33:48.338Z,82.70
2017-12-23T23:36:14.534Z,82.50
2017-12-23T23:38:40.728Z,82.40
2017-12-23T23:41:07.648Z,81.90
2017-12-23T23:43:33.858Z,81.90
2017-12-23T23:46:00.045Z,82.10
2017-12-23T23:48:26.220Z,82.30
2017-12-23T23:50:52.420Z,83.00
2017-12-23T23:53:19.345Z,82.60
2017-12-23T23:55:46.296Z,81.90
2017-12-23T23:58:12.483Z,81.90
